Flight Track Log - Related Links

Times and Time Zones

All times are in EDT time to prevent confusion due to time zone crossing. See the KAL724 flight status page for this flight to view local times or setup timezone preferences in your user account.

Time Position Orientation Groundspeed Altitude Reporting Facility
EDT Latitude Longitude Course Direction KTS MPH feet Rate Location/Type
Sat 11:11:47 PM 34.4140 135.2230 234° Southwest 161 185 1,600  Level FlightAware ADS-B
Sat 11:12:27 PM 34.3960 135.1900 237° Southwest 181 208 3,400 2,300 Climbing FlightAware ADS-B
Sat 11:12:47 PM 34.3880 135.1760 235° Southwest 204 235 3,900 1,745 Climbing FlightAware ADS-B
Sat 11:13:22 PM 34.3660 135.1340 238° Southwest 273 314 5,000 2,133 Climbing FlightAware ADS-B
Sat 11:13:32 PM 34.3640 135.1190 261° West 276 318 5,500 4,400 Climbing FlightAware ADS-B
Sat 11:13:52 PM 34.3740 135.0870 291° West 267 307 7,200 4,286 Climbing FlightAware ADS-B
Sat 11:14:07 PM 34.3870 135.0740 320° Northwest 265 305 8,000 2,850 Climbing FlightAware ADS-B
Sat 11:14:32 PM 34.4150 135.0600 338° Northwest 272 313 9,100 3,000 Climbing FlightAware ADS-B
Sat 11:14:47 PM 34.4350 135.0600 360° North 276 318 10,000 2,500 Climbing FlightAware ADS-B
Sat 11:15:32 PM 34.4910 135.0440 347° North 322 371 11,600 1,855 Climbing FlightAware ADS-B
Sat 11:15:42 PM 34.5000 135.0280 304° West 324 373 11,700 800 Climbing FlightAware ADS-B
Sat 11:16:17 PM 34.5120 134.9680 284° West 326 375 12,200 2,400 Climbing FlightAware ADS-B
Sat 11:17:07 PM 34.5290 134.8770 283° West 333 383 15,100 3,933 Climbing FlightAware ADS-B
Sat 11:17:47 PM 34.5290 134.8040 270° West 317 365 18,100 3,900 Climbing FlightAware ADS-B
Sat 11:18:27 PM 34.5160 134.7360 257° West 318 366 20,300 2,965 Climbing FlightAware ADS-B
Sat 11:19:12 PM 34.5010 134.6540 258° West 326 375 22,300 2,667 Climbing FlightAware ADS-B
Sat 11:19:57 PM 34.4850 134.5740 256° West 331 381 24,300 2,720 Climbing FlightAware ADS-B
Sat 11:20:27 PM 34.4880 134.5210 274° West 322 371 25,700 2,677 Climbing FlightAware ADS-B
Sat 11:21:02 PM 34.4990 134.4590 282° West 320 368 27,200 2,047 Climbing FlightAware ADS-B
Sat 11:21:52 PM 34.5160 134.3690 283° West 334 384 28,600 1,867 Climbing FlightAware ADS-B
Sat 11:22:32 PM 34.5290 134.2950 282° West 335 386 30,000 1,906 Climbing FlightAware ADS-B
Sat 11:23:17 PM 34.5440 134.2120 282° West 339 390 31,300 1,976 Climbing FlightAware ADS-B
Sat 11:23:57 PM 34.5570 134.1390 282° West 331 381 32,800 1,520 Climbing FlightAware ADS-B
Sat 11:24:32 PM 34.5680 134.0780 282° West 345 397 33,200 918 Climbing FlightAware ADS-B
Sat 11:25:22 PM 34.5860 133.9770 282° West 357 411 34,100 1,129 Climbing FlightAware ADS-B
Sat 11:25:57 PM 34.5980 133.9080 282° West 362 417 34,800 1,200 Climbing FlightAware ADS-B
Sat 11:26:47 PM 34.6160 133.8130 283° West 367 422 35,800 847 Climbing FlightAware ADS-B
Sat 11:27:22 PM 34.6400 133.7460 294° West 384 442 36,000 160 Climbing FlightAware ADS-B
Sat 11:28:02 PM 34.6880 133.6750 309° West 411 473 36,000  Level FlightAware ADS-B
Sat 11:28:52 PM 34.7610 133.5960 318° Northwest 412 474 36,000  Level FlightAware ADS-B
Sat 11:29:27 PM 34.8090 133.5440 318° Northwest 414 476 36,000  Level FlightAware ADS-B
Sat 11:30:07 PM 34.8670 133.4800 318° Northwest 415 478 36,000  Level FlightAware ADS-B
Sat 11:30:57 PM 34.9390 133.4020 318° Northwest 413 475 36,000  Level FlightAware ADS-B
Sat 11:31:52 PM 35.0170 133.3170 318° Northwest 415 478 36,000  Level FlightAware ADS-B
Sat 11:32:37 PM 35.0800 133.2480 318° Northwest 413 475 36,000  Level FlightAware ADS-B
Sat 11:33:17 PM 35.1370 133.1860 318° Northwest 410 472 36,000  Level FlightAware ADS-B
Sat 11:35:00 PM 35.1971 133.0296 295° West  Level Estimated
Sat 11:36:00 PM 35.2320 132.9384 295° West  Level Estimated
Sat 11:36:17 PM 35.3910 132.9050 295° West 413 475 36,000  Level FlightAware ADS-B
Sat 11:36:57 PM 35.4490 132.8410 318° Northwest 414 476 36,000  Level FlightAware ADS-B
Sat 11:37:42 PM 35.5170 132.7650 318° Northwest 411 473 36,000  Level FlightAware ADS-B
Sat 11:38:22 PM 35.5640 132.6900 308° West 404 465 36,000  Level FlightAware ADS-B
Sat 11:39:07 PM 35.5940 132.5930 291° West 409 471 36,000  Level FlightAware ADS-B
Sat 11:39:47 PM 35.6060 132.5060 280° West 412 474 36,000  Level FlightAware ADS-B
Sat 11:40:32 PM 35.6200 132.4000 279° West 412 474 36,000  Level FlightAware ADS-B
Sat 11:41:07 PM 35.6290 132.3260 279° West 412 474 36,000  Level FlightAware ADS-B
Sat 11:41:52 PM 35.6430 132.2200 279° West 413 475 36,000  Level FlightAware ADS-B
Sat 11:42:47 PM 35.6580 132.1010 279° West 413 475 36,000  Level FlightAware ADS-B
Sat 11:43:32 PM 35.6730 131.9820 279° West 416 479 36,000  Level FlightAware ADS-B
Sat 11:44:27 PM 35.6880 131.8610 279° West 415 478 36,000  Level FlightAware ADS-B
Sat 11:45:22 PM 35.7030 131.7380 279° West 415 478 36,000  Level FlightAware ADS-B
Sat 11:46:07 PM 35.7170 131.6280 279° West 36,000  Level FlightAware ADS-B
Sat 11:46:47 PM 35.7290 131.5300 279° West 412 474 36,000  Level FlightAware ADS-B
Sat 11:47:27 PM 35.7380 131.4500 278° West 412 474 36,000  Level FlightAware ADS-B
Sat 11:48:07 PM 35.7450 131.3700 276° West 412 474 36,000  Level FlightAware ADS-B
Sat 11:48:47 PM 35.7530 131.2910 277° West 412 474 36,000  Level FlightAware ADS-B
Sat 11:49:27 PM 35.7720 131.1770 282° West 405 466 36,000  Level FlightAware ADS-B
Sat 11:50:12 PM 35.7830 131.0810 278° West 405 466 36,000  Level FlightAware ADS-B
Sat 11:51:07 PM 35.7990 130.9400 278° West 408 470 36,000  Level FlightAware ADS-B
Sat 11:51:47 PM 35.8090 130.8530 278° West 411 473 36,000  Level FlightAware ADS-B
Sat 11:52:32 PM 35.8220 130.7420 278° West 415 478 36,000  Level FlightAware ADS-B
Sat 11:53:17 PM 35.8320 130.6420 277° West 413 475 36,000  Level FlightAware ADS-B
Sat 11:53:57 PM 35.8400 130.5620 277° West 413 475 36,000  Level FlightAware ADS-B
Sat 11:54:37 PM 35.8480 130.4830 277° West 413 475 36,000  Level FlightAware ADS-B
Sat 11:55:27 PM 35.8580 130.3830 277° West 413 475 36,000  Level FlightAware ADS-B
Sat 11:56:07 PM 35.8660 130.3040 277° West 413 475 36,000  Level FlightAware ADS-B
Sat 11:56:47 PM 35.8740 130.2240 277° West 413 475 36,000  Level FlightAware ADS-B
Sat 11:57:32 PM 35.9080 130.0580 284° West 402 463 36,000  Level FlightAware ADS-B
Sat 11:58:07 PM 35.9160 129.9830 278° West 402 463 36,000  Level FlightAware ADS-B
Sat 11:58:47 PM 35.9250 129.9060 278° West 402 463 36,000  Level FlightAware ADS-B
Sat 11:59:37 PM 35.9360 129.8090 278° West 402 463 36,000  Level FlightAware ADS-B
Sun 12:00:17 AM 35.9450 129.7320 278° West 402 463 36,000  Level FlightAware ADS-B
Sun 12:00:57 AM 35.9530 129.6540 277° West 402 463 36,000  Level FlightAware ADS-B
Sun 12:01:37 AM 35.9620 129.5770 278° West 402 463 36,000  Level FlightAware ADS-B
Sun 12:02:27 AM 35.9730 129.4800 278° West 402 463 36,000  Level FlightAware ADS-B
Sun 12:03:07 AM 35.9820 129.4030 278° West 402 463 36,000  Level FlightAware ADS-B
Sun 12:03:47 AM 35.9910 129.3260 278° West 402 463 36,000  Level FlightAware ADS-B
Sun 12:04:27 AM 36.0000 129.2480 278° West 402 463 36,000  Level FlightAware ADS-B
Sun 12:05:07 AM 36.0080 129.1710 277° West 402 463 36,000  Level FlightAware ADS-B
Sun 12:05:57 AM 36.0190 129.0740 278° West 402 463 36,000  Level FlightAware ADS-B
Sun 12:06:37 AM 36.0280 128.9960 278° West 402 463 36,000  Level FlightAware ADS-B
Sun 12:07:17 AM 36.0370 128.9190 278° West 402 463 36,000 -1,741 Level FlightAware ADS-B
Sun 12:09:00 AM 36.1250 128.7724 307° West  Level Estimated
Sun 12:10:00 AM 36.1761 128.6869 307° West  Level Estimated
Sun 12:11:00 AM 36.2272 128.6013 307° West  Level Estimated
Sun 12:12:00 AM 36.2783 128.5155 306° West  Level Estimated
Sun 12:13:00 AM 36.3292 128.4297 306° West  Level Estimated
Sun 12:14:00 AM 36.3801 128.3437 306° West  Level Estimated
Sun 12:15:00 AM 36.4310 128.2576 306° West  Level Estimated
Sun 12:16:00 AM 36.4818 128.1714 306° West  Level Estimated
Sun 12:17:00 AM 36.5325 128.0851 306° West  Level Estimated
Sun 12:18:00 AM 36.5832 127.9987 306° West  Level Estimated
Sun 12:19:00 AM 36.6338 127.9121 306° West  Level Estimated
Sun 12:19:22 AM 37.0760 127.4940 306° West 351 404 13,800  Level FlightAware ADS-B
Sun 12:20:07 AM 37.1110 127.4130 298° West 332 382 12,600 -1,067 Descending FlightAware ADS-B
Sun 12:20:52 AM 37.1430 127.3420 300° West 295 339 12,200 -776 Descending FlightAware ADS-B
Sun 12:21:32 AM 37.1690 127.2820 299° West 283 326 11,500 -1,200 Descending FlightAware ADS-B
Sun 12:22:12 AM 37.1930 127.2250 298° West 275 316 10,600 -1,418 Descending FlightAware ADS-B
Sun 12:22:27 AM 37.1990 127.2020 288° West 282 325 10,200 -1,600 Descending FlightAware ADS-B
Sun 12:22:42 AM 37.1970 127.1770 264° West 287 330 9,800 -1,467 Descending FlightAware ADS-B
Sun 12:23:12 AM 37.1890 127.1280 258° West 283 326 9,100 -1,309 Descending FlightAware ADS-B
Sun 12:23:37 AM 37.1830 127.0890 259° West 280 322 8,600 -1,200 Descending FlightAware ADS-B
Sun 12:24:07 AM 37.1770 127.0470 260° West 278 320 8,000 -655 Descending FlightAware ADS-B
Sun 12:24:32 AM 37.1710 127.0090 259° West 278 320 8,000 -1,350 Level FlightAware ADS-B
Sun 12:24:47 AM 37.1680 126.9800 263° West 266 306 7,100 -1,600 Descending FlightAware ADS-B
Sun 12:25:17 AM 37.1670 126.9370 268° West 265 305 6,800 -327 Descending FlightAware ADS-B
Sun 12:25:42 AM 37.1670 126.8990 270° West 265 305 6,800  Level FlightAware ADS-B
Sun 12:26:17 AM 37.1690 126.8480 273° West 265 305 6,800  Level FlightAware ADS-B
Sun 12:26:52 AM 37.1710 126.7990 273° West 212 244 6,800  Level FlightAware ADS-B
Sun 12:27:32 AM 37.1720 126.7560 272° West 206 237 6,800  Level FlightAware ADS-B
Sun 12:28:17 AM 37.1730 126.7010 271° West 204 235 6,800 -776 Level FlightAware ADS-B
Sun 12:28:57 AM 37.2180 126.6760 336° Northwest 190 219 5,700 -1,457 Descending FlightAware ADS-B
Sun 12:29:27 AM 37.2370 126.6590 325° Northwest 188 216 5,100 -1,120 Descending FlightAware ADS-B
Sun 12:30:12 AM 37.2670 126.6320 324° Northwest 187 215 4,300 -1,100 Descending FlightAware ADS-B
Sun 12:30:27 AM 37.2810 126.6200 326° Northwest 183 211 4,000 -1,050 Descending FlightAware ADS-B
Sun 12:30:52 AM 37.2960 126.6070 325° Northwest 181 208 3,600 -480 Descending FlightAware ADS-B
Sun 12:31:17 AM 37.3130 126.5920 325° Northwest 181 208 3,600  Level FlightAware ADS-B
Sun 12:33:00 AM 37.4327 126.4835 324° Northwest  Level Estimated
Sun 12:34:00 AM 37.4691 126.4505 324° Northwest  Level Estimated
Sun 12:35:00 AM 37.4691 126.4505 335° Northwest  Level Estimated
Sun 12:36:00 AM 37.4691 126.4505 335° Northwest  Level Estimated
Sun 12:37:00 AM 37.4691 126.4505 335° Northwest  Level Estimated
Sun 12:38:00 AM 37.4691 126.4505 335° Northwest  Level Estimated
Sun 12:39:00 AM 37.4691 126.4505 335° Northwest  Level Estimated
Sun 12:40:00 AM 37.4691 126.4505 335° Northwest  Level Estimated
Sun 12:41:00 AM 37.4691 126.4505 335° Northwest  Level Estimated
Sun 12:42:00 AM 37.4691 126.4505 335° Northwest  Level Estimated
Sun 12:43:00 AM 37.4691 126.4505 335° Northwest  Level Estimated
Sun 12:44:00 AM 37.4691 126.4505 335° Northwest  Level Estimated
Sun 12:45:00 AM 37.4691 126.4505 335° Northwest  Level Estimated
Sun 12:46:00 AM 37.4691 126.4505 335° Northwest  Level Estimated

Login

Don't have an account? Register now (free) for customized features, flight alerts, and more!